Time;durP1;ratioP1;P1;durP2;ratioP2;P2;SDS_P1;SDS_P2;PMS_P1;PMS_P2;Temp;Humidity;BMP_temperature;BMP_pressure;BME280_temperature;BME280_humidity;BME280_pressure;Samples;Min_cycle;Max_cycle;Signal;HPM_P1;HPM_P2
2021/05/20 00:00:09;;;;;;;19.65;10.43;;;8.90;99.90;;;;;;5046601;28;20097;-69
2021/05/20 00:02:36;;;;;;;20.98;9.70;;;8.90;99.90;;;;;;5044774;28;20040;-69
2021/05/20 00:05:02;;;;;;;22.48;11.82;;;8.90;99.90;;;;;;5037528;28;20498;-69
2021/05/20 00:07:27;;;;;;;18.58;10.52;;;8.90;99.90;;;;;;5039121;28;20037;-68
2021/05/20 00:09:53;;;;;;;20.70;10.77;;;8.90;99.90;;;;;;5036669;28;20029;-69
2021/05/20 00:12:18;;;;;;;19.45;10.27;;;8.90;99.90;;;;;;5035227;28;20051;-69
2021/05/20 00:14:44;;;;;;;20.35;10.85;;;8.80;99.90;;;;;;5036966;28;20549;-69
2021/05/20 00:17:10;;;;;;;19.08;11.10;;;8.80;99.90;;;;;;5039436;28;20428;-69
2021/05/20 00:19:35;;;;;;;20.15;11.13;;;8.80;99.90;;;;;;5037812;28;20029;-68
2021/05/20 00:22:01;;;;;;;22.27;10.93;;;8.80;99.90;;;;;;5038080;28;20036;-68
2021/05/20 00:24:27;;;;;;;19.85;11.20;;;8.70;99.90;;;;;;5039301;28;20683;-69
2021/05/20 00:26:52;;;;;;;23.45;11.63;;;8.70;99.90;;;;;;5041127;28;20036;-68
2021/05/20 00:29:18;;;;;;;21.38;11.05;;;8.60;99.90;;;;;;5036089;28;20037;-69
2021/05/20 00:31:43;;;;;;;20.52;11.18;;;8.60;99.90;;;;;;5036288;28;20044;-68
2021/05/20 00:34:09;;;;;;;17.25;9.98;;;8.60;99.90;;;;;;5041346;28;20116;-68
2021/05/20 00:36:34;;;;;;;19.02;10.85;;;8.60;99.90;;;;;;5038126;28;20037;-68
2021/05/20 00:39:02;;;;;;;24.42;11.88;;;8.60;99.90;;;;;;5042593;28;20037;-68
2021/05/20 00:41:28;;;;;;;21.33;11.07;;;8.50;99.90;;;;;;5036322;28;20075;-69
2021/05/20 00:43:53;;;;;;;19.77;10.43;;;8.50;99.90;;;;;;5036088;28;20441;-69
2021/05/20 00:46:19;;;;;;;21.27;10.90;;;8.50;99.90;;;;;;5039610;28;20064;-69
2021/05/20 00:48:45;;;;;;;24.17;11.70;;;8.50;99.90;;;;;;5032940;28;20030;-68
2021/05/20 00:51:10;;;;;;;23.42;10.50;;;8.40;99.90;;;;;;5039480;28;20497;-69
2021/05/20 00:53:36;;;;;;;22.65;12.15;;;8.40;99.90;;;;;;5036225;28;20036;-69
2021/05/20 00:56:02;;;;;;;21.70;10.88;;;8.40;99.90;;;;;;5039306;28;20048;-69
2021/05/20 00:58:28;;;;;;;21.38;11.40;;;8.30;99.90;;;;;;5034658;28;20102;-68
2021/05/20 01:00:55;;;;;;;20.65;11.73;;;8.20;99.90;;;;;;5036553;28;20041;-69
2021/05/20 01:03:23;;;;;;;24.60;12.35;;;8.30;99.90;;;;;;5037537;28;20045;-69
2021/05/20 01:05:53;;;;;;;20.80;11.05;;;8.20;99.90;;;;;;5041725;28;20128;-69
2021/05/20 01:08:25;;;;;;;25.33;11.63;;;8.20;99.90;;;;;;5037318;28;20188;-68
2021/05/20 01:10:51;;;;;;;20.02;11.65;;;8.20;99.90;;;;;;5039164;28;20517;-69
2021/05/20 01:13:17;;;;;;;22.08;11.50;;;8.20;99.90;;;;;;5039930;28;20490;-69
2021/05/20 01:15:42;;;;;;;21.55;11.50;;;8.20;99.90;;;;;;5035178;28;20033;-68
2021/05/20 01:18:08;;;;;;;19.10;10.32;;;8.20;99.90;;;;;;5036107;28;20108;-68
2021/05/20 01:20:39;;;;;;;20.33;10.68;;;8.20;99.90;;;;;;5035554;28;20063;-69
2021/05/20 01:23:13;;;;;;;18.92;9.93;;;8.20;99.90;;;;;;5036220;28;20111;-68
2021/05/20 01:25:40;;;;;;;21.67;10.65;;;8.20;99.90;;;;;;5035017;28;20041;-68
2021/05/20 01:28:09;;;;;;;20.23;10.10;;;8.10;99.90;;;;;;5041726;28;20615;-68
2021/05/20 01:30:37;;;;;;;16.85;9.45;;;8.10;99.90;;;;;;5037050;28;20091;-68
2021/05/20 01:33:03;;;;;;;21.10;10.77;;;8.10;99.90;;;;;;5041824;28;20033;-68
2021/05/20 01:35:29;;;;;;;19.95;10.60;;;8.10;99.90;;;;;;5033125;28;20040;-69
2021/05/20 01:38:36;;;;;;;25.33;10.82;;;8.10;99.90;;;;;;5038591;28;20033;-72
2021/05/20 01:40:51;;;;;;;38.42;11.98;;;8.10;99.90;;;;;;5039956;28;20053;-69
2021/05/20 01:43:17;;;;;;;37.65;13.48;;;8.10;99.90;;;;;;5038729;28;20056;-68
2021/05/20 01:45:48;;;;;;;38.92;13.10;;;8.10;99.90;;;;;;5033480;28;20417;-68
2021/05/20 01:48:14;;;;;;;39.55;13.38;;;8.10;99.90;;;;;;5038327;28;20530;-69
2021/05/20 01:50:40;;;;;;;28.85;12.48;;;8.20;99.90;;;;;;5036220;28;20109;-68
2021/05/20 01:53:05;;;;;;;36.80;13.40;;;8.20;99.90;;;;;;5042579;28;20029;-68
2021/05/20 01:55:31;;;;;;;29.73;12.50;;;8.20;99.90;;;;;;5037621;28;20030;-68
2021/05/20 01:57:56;;;;;;;40.05;13.43;;;8.20;99.90;;;;;;5041152;28;20532;-68
2021/05/20 02:00:22;;;;;;;43.20;13.73;;;8.30;99.90;;;;;;5038506;28;20120;-69
2021/05/20 02:02:47;;;;;;;28.70;12.77;;;8.30;99.90;;;;;;5042634;28;20033;-69
2021/05/20 02:05:13;;;;;;;46.75;13.07;;;8.30;99.90;;;;;;5038693;28;20029;-69
2021/05/20 02:07:39;;;;;;;43.90;12.68;;;8.30;99.90;;;;;;5036479;28;20033;-68
2021/05/20 02:10:05;;;;;;;36.28;12.38;;;8.30;99.90;;;;;;5041469;28;20033;-68
2021/05/20 02:12:30;;;;;;;48.30;11.80;;;8.30;99.90;;;;;;5036226;28;20063;-68
2021/05/20 02:14:56;;;;;;;32.28;11.55;;;8.30;99.90;;;;;;5043348;28;20060;-68
2021/05/20 02:17:21;;;;;;;55.55;12.48;;;8.30;99.90;;;;;;5043106;28;20048;-68
2021/05/20 02:19:47;;;;;;;75.68;13.20;;;8.30;99.90;;;;;;5038732;28;20029;-69
2021/05/20 02:22:12;;;;;;;62.67;12.05;;;8.30;99.90;;;;;;5046142;28;20086;-69
2021/05/20 02:24:38;;;;;;;56.75;12.13;;;8.30;99.90;;;;;;5039296;28;20033;-69
2021/05/20 02:27:04;;;;;;;47.05;11.00;;;8.30;99.90;;;;;;5041252;28;20048;-69
2021/05/20 02:29:29;;;;;;;73.90;12.55;;;8.20;99.90;;;;;;5039556;28;20060;-68
2021/05/20 02:31:56;;;;;;;57.22;10.75;;;8.20;99.90;;;;;;5038520;28;20091;-68
2021/05/20 02:34:21;;;;;;;42.10;11.43;;;8.20;99.90;;;;;;5040996;28;20838;-68
2021/05/20 02:36:47;;;;;;;30.70;10.60;;;8.20;99.90;;;;;;5040779;28;20025;-68
2021/05/20 02:39:13;;;;;;;56.33;11.13;;;8.20;99.90;;;;;;5039902;28;20134;-69
2021/05/20 02:41:38;;;;;;;63.78;11.00;;;8.20;99.90;;;;;;5040392;28;20367;-69
2021/05/20 02:44:04;;;;;;;73.20;11.13;;;8.20;99.90;;;;;;5040423;28;20136;-69
2021/05/20 02:46:29;;;;;;;105.75;11.27;;;8.10;99.90;;;;;;5035501;28;20037;-69
2021/05/20 02:48:55;;;;;;;147.35;14.77;;;8.10;99.90;;;;;;5039861;28;20045;-69
2021/05/20 02:51:22;;;;;;;100.25;12.40;;;8.10;99.90;;;;;;5042361;28;20087;-69
2021/05/20 02:53:48;;;;;;;109.55;13.50;;;8.10;99.90;;;;;;5039308;28;20041;-68
2021/05/20 02:56:13;;;;;;;95.90;10.07;;;8.10;99.90;;;;;;5041652;28;20066;-69
2021/05/20 02:58:39;;;;;;;62.83;9.45;;;8.00;99.90;;;;;;5041533;28;20107;-68
2021/05/20 03:01:05;;;;;;;112.03;11.15;;;8.00;99.90;;;;;;5041982;28;20021;-68
2021/05/20 03:03:30;;;;;;;60.53;10.13;;;7.90;99.90;;;;;;5041282;28;20029;-68
2021/05/20 03:05:58;;;;;;;25.58;7.65;;;7.90;99.90;;;;;;5043739;28;20033;-68
2021/05/20 03:08:24;;;;;;;31.95;7.18;;;7.90;99.90;;;;;;5041005;28;20678;-68
2021/05/20 03:10:49;;;;;;;37.28;6.85;;;7.80;99.90;;;;;;5042713;28;20036;-68
2021/05/20 03:13:15;;;;;;;39.78;6.50;;;7.70;99.90;;;;;;5040519;28;20053;-69
2021/05/20 03:15:41;;;;;;;44.15;8.30;;;7.60;99.90;;;;;;5042128;28;20033;-68
2021/05/20 03:18:06;;;;;;;56.28;7.20;;;7.50;99.90;;;;;;5037666;28;20029;-68
2021/05/20 03:20:33;;;;;;;28.40;7.13;;;7.40;99.90;;;;;;5037609;28;20026;-68
2021/05/20 03:22:58;;;;;;;48.58;7.18;;;7.40;99.90;;;;;;5040461;28;20123;-68
2021/05/20 03:25:24;;;;;;;60.05;8.25;;;7.30;99.90;;;;;;5034035;28;20135;-69
2021/05/20 03:27:50;;;;;;;69.32;9.63;;;7.20;99.90;;;;;;5039013;28;20041;-68
2021/05/20 03:30:16;;;;;;;87.68;10.25;;;7.20;99.90;;;;;;5041876;28;20034;-68
2021/05/20 03:32:42;;;;;;;65.97;10.13;;;7.30;99.90;;;;;;5040831;28;20037;-68
2021/05/20 03:35:08;;;;;;;145.68;12.95;;;7.30;99.90;;;;;;5037103;28;20068;-68
2021/05/20 03:37:35;;;;;;;99.88;10.80;;;7.30;99.90;;;;;;5042347;28;20065;-68
2021/05/20 03:40:02;;;;;;;89.43;11.13;;;7.30;99.90;;;;;;5040817;28;20029;-69
2021/05/20 03:42:28;;;;;;;84.50;10.60;;;7.30;99.90;;;;;;5034330;28;20084;-69
2021/05/20 03:44:53;;;;;;;135.02;11.95;;;7.30;99.90;;;;;;5034061;28;20037;-68
2021/05/20 03:47:19;;;;;;;95.72;9.98;;;7.40;99.90;;;;;;5043023;28;20122;-69
2021/05/20 03:49:45;;;;;;;87.10;11.48;;;7.40;99.90;;;;;;5041039;28;20037;-68
2021/05/20 03:52:10;;;;;;;58.00;9.05;;;7.40;99.90;;;;;;5038206;28;20029;-68
2021/05/20 03:54:40;;;;;;;110.75;11.13;;;7.40;99.90;;;;;;5036986;28;20067;-68
2021/05/20 03:57:06;;;;;;;46.80;8.20;;;7.40;99.90;;;;;;5040153;28;20036;-68
2021/05/20 03:59:31;;;;;;;104.85;10.77;;;7.40;99.90;;;;;;5039323;28;20435;-68
2021/05/20 04:01:57;;;;;;;125.90;12.82;;;7.40;99.90;;;;;;5038722;28;20091;-69
2021/05/20 04:04:22;;;;;;;63.00;11.40;;;7.50;99.90;;;;;;5037306;28;20033;-68
2021/05/20 04:06:48;;;;;;;102.43;14.00;;;7.50;99.90;;;;;;5040252;28;20040;-67
2021/05/20 04:09:13;;;;;;;85.38;13.30;;;7.50;99.90;;;;;;5041130;28;20033;-69
2021/05/20 04:11:39;;;;;;;87.88;11.65;;;7.50;99.90;;;;;;5036505;28;20025;-68
2021/05/20 04:14:05;;;;;;;129.38;14.48;;;7.50;99.90;;;;;;5037150;28;20036;-68
2021/05/20 04:16:30;;;;;;;99.90;14.90;;;7.60;99.90;;;;;;5035977;28;20072;-68
2021/05/20 04:18:56;;;;;;;97.55;13.52;;;7.60;99.90;;;;;;5037036;28;20032;-68
2021/05/20 04:21:21;;;;;;;91.43;15.48;;;7.80;99.90;;;;;;5040802;28;20402;-68
2021/05/20 04:23:48;;;;;;;86.43;13.32;;;7.80;99.90;;;;;;5035176;28;20036;-70
2021/05/20 04:26:18;;;;;;;52.05;12.63;;;7.80;99.90;;;;;;5039572;28;20033;-69
2021/05/20 04:28:45;;;;;;;61.90;13.10;;;7.90;99.90;;;;;;5041529;28;20033;-68
2021/05/20 04:31:10;;;;;;;73.13;13.55;;;7.90;99.90;;;;;;5044367;28;20037;-68
2021/05/20 04:33:36;;;;;;;63.35;13.45;;;8.00;99.90;;;;;;5042059;28;20517;-69
2021/05/20 04:36:01;;;;;;;65.05;14.40;;;8.00;99.90;;;;;;5038452;28;20037;-69
2021/05/20 04:38:27;;;;;;;42.53;13.18;;;8.10;99.90;;;;;;5042147;28;20056;-68
2021/05/20 04:40:53;;;;;;;61.63;14.20;;;8.20;99.90;;;;;;5040658;28;20098;-68
2021/05/20 04:43:18;;;;;;;35.63;12.60;;;8.30;99.90;;;;;;5040788;28;20406;-68
2021/05/20 04:45:46;;;;;;;47.85;12.80;;;8.30;99.90;;;;;;5039253;28;20033;-68
2021/05/20 04:48:12;;;;;;;55.38;14.00;;;8.40;99.90;;;;;;5040603;28;20116;-68
2021/05/20 04:50:41;;;;;;;52.08;14.75;;;8.50;99.90;;;;;;5041326;28;20124;-69
2021/05/20 04:53:08;;;;;;;27.88;12.50;;;8.50;99.90;;;;;;5039257;28;20025;-69
2021/05/20 04:55:34;;;;;;;41.38;13.80;;;8.60;99.90;;;;;;5040892;28;20051;-68
2021/05/20 04:57:59;;;;;;;62.47;14.73;;;8.60;99.90;;;;;;5038274;28;20558;-68
2021/05/20 05:00:25;;;;;;;54.72;13.05;;;8.60;99.90;;;;;;5041011;28;20041;-68
2021/05/20 05:02:51;;;;;;;75.35;14.80;;;8.70;99.90;;;;;;5040562;28;20037;-68
2021/05/20 05:05:16;;;;;;;49.90;13.57;;;8.80;99.90;;;;;;5039602;28;20033;-70
2021/05/20 05:07:43;;;;;;;68.72;14.82;;;8.80;99.90;;;;;;5035075;28;20127;-68
2021/05/20 05:10:09;;;;;;;53.70;16.67;;;8.80;99.90;;;;;;5040300;28;20654;-68
2021/05/20 05:12:34;;;;;;;58.95;17.50;;;8.90;99.90;;;;;;5041464;28;20041;-69
2021/05/20 05:15:00;;;;;;;63.15;16.33;;;8.90;99.90;;;;;;5043348;28;20033;-69
2021/05/20 05:17:26;;;;;;;83.65;17.38;;;9.00;99.90;;;;;;5042127;28;20029;-68
2021/05/20 05:19:51;;;;;;;67.35;17.17;;;9.20;99.90;;;;;;5038622;28;20029;-69
2021/05/20 05:22:18;;;;;;;62.35;17.88;;;9.20;99.90;;;;;;5042166;28;20033;-68
2021/05/20 05:24:44;;;;;;;66.47;17.13;;;9.30;99.90;;;;;;5041640;28;20120;-69
2021/05/20 05:27:10;;;;;;;57.70;18.50;;;9.40;99.90;;;;;;5043490;28;20885;-67
2021/05/20 05:29:35;;;;;;;52.47;17.23;;;9.40;99.90;;;;;;5042798;28;20041;-68
2021/05/20 05:32:02;;;;;;;54.85;15.60;;;9.50;99.90;;;;;;5040725;28;20052;-68
2021/05/20 05:34:27;;;;;;;58.03;16.48;;;9.50;99.90;;;;;;5045171;28;20040;-68
2021/05/20 05:36:53;;;;;;;54.40;14.65;;;9.60;99.90;;;;;;5040617;28;20389;-69
2021/05/20 05:39:19;;;;;;;70.90;15.93;;;9.60;99.90;;;;;;5041051;28;20040;-70
2021/05/20 05:41:44;;;;;;;35.20;13.40;;;9.60;99.90;;;;;;5042325;28;20032;-69
2021/05/20 05:44:12;;;;;;;53.47;15.48;;;9.70;99.90;;;;;;5045423;28;20486;-68
2021/05/20 05:46:38;;;;;;;47.97;14.07;;;9.70;99.90;;;;;;5044455;28;20407;-68
2021/05/20 05:51:59;;;;;;;50.53;13.55;;;9.90;99.90;;;;;;5041236;28;20032;-70
2021/05/20 05:54:25;;;;;;;52.15;12.90;;;9.90;99.90;;;;;;5054010;28;20410;-69
2021/05/20 05:56:51;;;;;;;58.45;12.93;;;10.00;99.90;;;;;;5051496;28;20116;-69
2021/05/20 05:59:17;;;;;;;64.22;12.85;;;10.10;99.90;;;;;;5051791;28;20038;-70
2021/05/20 06:01:43;;;;;;;79.72;14.18;;;10.10;99.90;;;;;;5046017;28;20041;-69
2021/05/20 06:04:09;;;;;;;66.65;13.60;;;10.30;99.90;;;;;;5037040;28;20099;-68
2021/05/20 06:06:36;;;;;;;81.18;13.90;;;10.30;99.90;;;;;;5045691;28;20037;-69
2021/05/20 06:09:05;;;;;;;56.72;13.90;;;10.30;99.90;;;;;;5051579;28;20033;-68
2021/05/20 06:11:32;;;;;;;107.75;13.98;;;10.40;99.90;;;;;;5048657;28;20052;-70
2021/05/20 06:14:01;;;;;;;57.25;13.27;;;10.40;99.90;;;;;;5043838;28;20072;-69
2021/05/20 06:16:27;;;;;;;61.67;14.43;;;10.50;99.90;;;;;;5037891;28;20057;-70
2021/05/20 06:18:52;;;;;;;52.88;13.88;;;10.50;99.90;;;;;;5044717;28;20447;-69
2021/05/20 06:21:18;;;;;;;33.33;14.02;;;10.60;99.90;;;;;;5041375;28;20041;-69
2021/05/20 06:23:43;;;;;;;42.97;14.43;;;10.70;99.90;;;;;;5046386;28;20035;-68
2021/05/20 06:26:09;;;;;;;40.78;14.40;;;10.70;99.90;;;;;;5043709;28;20048;-69
2021/05/20 06:28:36;;;;;;;46.25;15.35;;;10.80;99.90;;;;;;5042405;28;20079;-68
2021/05/20 06:31:03;;;;;;;41.30;15.73;;;10.90;99.90;;;;;;5041783;28;20029;-69
2021/05/20 06:33:29;;;;;;;37.65;15.15;;;11.00;99.90;;;;;;5041046;28;20117;-68
2021/05/20 06:35:54;;;;;;;40.60;13.95;;;11.10;99.90;;;;;;5042232;28;20119;-67
2021/05/20 06:38:20;;;;;;;34.90;13.63;;;11.10;99.90;;;;;;5040041;28;20067;-68
2021/05/20 06:40:46;;;;;;;38.60;14.63;;;11.20;99.90;;;;;;5043917;28;20056;-68
2021/05/20 06:43:12;;;;;;;31.30;13.00;;;11.20;99.90;;;;;;5040932;28;20477;-69
2021/05/20 06:45:37;;;;;;;39.17;14.63;;;11.10;99.90;;;;;;5039389;28;20430;-69
2021/05/20 06:48:03;;;;;;;44.65;14.65;;;11.10;99.90;;;;;;5038469;28;20572;-69
2021/05/20 06:50:29;;;;;;;40.88;14.15;;;11.10;99.90;;;;;;5039497;28;20036;-69
2021/05/20 06:52:55;;;;;;;38.60;13.70;;;11.10;99.90;;;;;;5042748;28;20041;-68
2021/05/20 06:55:22;;;;;;;25.75;12.32;;;11.00;99.90;;;;;;5042696;28;20040;-71
2021/05/20 07:00:33;;;;;;;32.55;12.27;;;11.20;99.90;;;;;;5041792;28;20055;-69
2021/05/20 07:02:59;;;;;;;26.13;13.43;;;11.30;99.90;;;;;;5042276;28;20040;-69
2021/05/20 07:05:24;;;;;;;36.53;13.63;;;11.40;99.90;;;;;;5043989;28;20045;-68
2021/05/20 07:07:50;;;;;;;33.42;13.02;;;11.30;99.90;;;;;;5044632;28;20436;-68
2021/05/20 07:10:16;;;;;;;53.03;14.93;;;11.30;99.90;;;;;;5041139;28;20040;-68
2021/05/20 07:12:42;;;;;;;41.97;14.98;;;11.30;99.90;;;;;;5047739;28;20032;-70
2021/05/20 07:15:09;;;;;;;41.53;14.43;;;11.40;99.90;;;;;;5044002;28;20068;-69
2021/05/20 07:17:35;;;;;;;39.15;15.88;;;11.50;99.90;;;;;;5045254;28;20041;-69
2021/05/20 07:20:00;;;;;;;39.05;16.33;;;11.60;99.90;;;;;;5042505;28;20044;-68
2021/05/20 07:22:27;;;;;;;37.88;16.40;;;11.70;99.90;;;;;;5042909;28;20553;-69
2021/05/20 07:24:53;;;;;;;41.60;17.10;;;11.80;99.90;;;;;;5046086;28;20068;-69
2021/05/20 07:27:19;;;;;;;40.83;16.65;;;11.80;99.90;;;;;;5044363;28;20064;-68
2021/05/20 07:29:44;;;;;;;42.72;17.60;;;11.60;99.90;;;;;;5038979;28;20036;-68
2021/05/20 07:32:16;;;;;;;42.10;16.63;;;11.60;99.90;;;;;;5044929;28;20037;-68
2021/05/20 07:34:42;;;;;;;41.17;16.42;;;11.60;99.90;;;;;;5044963;28;20033;-70
2021/05/20 07:37:07;;;;;;;36.58;16.90;;;11.60;99.90;;;;;;5044759;28;20044;-68
2021/05/20 07:39:33;;;;;;;43.63;17.42;;;11.80;99.90;;;;;;5041673;28;20766;-68
2021/05/20 07:41:59;;;;;;;42.20;17.15;;;11.90;99.90;;;;;;5042896;28;22996;-69
2021/05/20 07:44:24;;;;;;;41.65;18.50;;;11.90;99.90;;;;;;5038316;28;20044;-70
2021/05/20 07:46:50;;;;;;;42.63;18.35;;;12.00;99.90;;;;;;5042030;28;20113;-69
2021/05/20 07:49:15;;;;;;;42.60;19.05;;;12.10;99.90;;;;;;5039223;28;20110;-68
2021/05/20 07:51:41;;;;;;;53.90;20.02;;;12.30;99.90;;;;;;5045140;28;20199;-70
2021/05/20 07:54:07;;;;;;;44.58;19.60;;;12.40;99.90;;;;;;5041854;28;20048;-69
2021/05/20 07:56:34;;;;;;;40.53;18.75;;;12.60;99.90;;;;;;5044836;28;20044;-69
2021/05/20 07:59:00;;;;;;;38.95;18.08;;;13.30;99.90;;;;;;5040017;28;21447;-69
2021/05/20 08:01:27;;;;;;;35.28;18.20;;;13.70;99.90;;;;;;5047383;28;20044;-69
2021/05/20 08:04:15;;;;;;;35.35;17.65;;;14.70;99.90;;;;;;5042492;28;20048;-69
2021/05/20 08:06:54;;;;;;;31.77;15.43;;;16.10;99.90;;;;;;5049602;28;20029;-68
2021/05/20 08:09:27;;;;;;;24.83;14.60;;;16.90;99.90;;;;;;5046599;28;20044;-68
2021/05/20 08:11:52;;;;;;;31.83;15.75;;;17.70;99.90;;;;;;5042235;28;20406;-69
2021/05/20 08:14:18;;;;;;;28.23;15.30;;;18.10;99.90;;;;;;5044815;28;20029;-69
2021/05/20 08:16:43;;;;;;;27.50;15.40;;;18.20;99.90;;;;;;5042589;28;20041;-70
2021/05/20 08:19:09;;;;;;;25.13;15.27;;;18.40;99.90;;;;;;5039173;28;20048;-70
2021/05/20 08:21:35;;;;;;;22.98;14.70;;;18.80;99.90;;;;;;5046112;28;20045;-68
2021/05/20 08:24:01;;;;;;;19.98;12.25;;;19.20;99.90;;;;;;5043690;28;20051;-68
2021/05/20 08:26:27;;;;;;;21.58;12.85;;;19.80;99.90;;;;;;5042416;28;20048;-69
2021/05/20 08:28:54;;;;;;;20.17;12.68;;;19.90;99.90;;;;;;5042182;28;20565;-68
2021/05/20 08:31:19;;;;;;;21.23;12.18;;;20.00;99.90;;;;;;5046727;28;20045;-71
2021/05/20 08:33:45;;;;;;;18.27;12.18;;;19.80;99.90;;;;;;5042945;28;20426;-69
2021/05/20 08:36:11;;;;;;;20.52;11.93;;;19.60;99.90;;;;;;5037874;28;20063;-69
2021/05/20 08:38:37;;;;;;;20.10;12.63;;;19.60;99.90;;;;;;5044705;28;20036;-72
2021/05/20 08:41:03;;;;;;;17.63;10.77;;;19.30;99.90;;;;;;5043298;28;20136;-71
2021/05/20 08:43:29;;;;;;;20.55;10.52;;;19.30;99.90;;;;;;5043065;28;20108;-71
2021/05/20 08:45:55;;;;;;;15.00;9.48;;;19.30;99.90;;;;;;5042497;28;20157;-68
2021/05/20 08:48:20;;;;;;;17.70;11.07;;;19.00;99.90;;;;;;5041492;28;20043;-69
2021/05/20 08:50:46;;;;;;;18.92;10.15;;;18.60;99.90;;;;;;5045454;28;20654;-69
2021/05/20 08:53:13;;;;;;;19.45;10.30;;;18.40;99.90;;;;;;5045724;28;20022;-71
2021/05/20 08:55:39;;;;;;;18.85;8.55;;;18.40;99.90;;;;;;5041527;28;20061;-69
2021/05/20 08:58:08;;;;;;;16.13;8.35;;;18.20;99.90;;;;;;5042516;28;20049;-69
2021/05/20 09:00:34;;;;;;;11.43;6.10;;;17.90;99.90;;;;;;5040994;28;20056;-70
2021/05/20 09:03:08;;;;;;;12.27;6.22;;;17.80;99.90;;;;;;5044331;28;20071;-71
2021/05/20 09:05:34;;;;;;;11.15;6.15;;;17.80;99.90;;;;;;5044335;28;20032;-69
2021/05/20 09:08:03;;;;;;;10.00;5.57;;;17.90;99.90;;;;;;5044188;28;20037;-69
2021/05/20 09:10:34;;;;;;;10.60;5.72;;;18.20;99.90;;;;;;5045359;28;20465;-70
2021/05/20 09:13:08;;;;;;;13.45;6.32;;;18.30;99.90;;;;;;5047801;28;20072;-70
2021/05/20 09:15:36;;;;;;;10.73;6.60;;;18.00;99.90;;;;;;5045735;28;20107;-70
2021/05/20 09:18:06;;;;;;;9.48;5.35;;;17.70;99.90;;;;;;5035497;28;20832;-70
2021/05/20 09:20:32;;;;;;;8.75;5.25;;;17.80;99.90;;;;;;5040537;28;20041;-69
2021/05/20 09:23:07;;;;;;;9.85;5.07;;;17.90;99.90;;;;;;5042723;28;20052;-70
2021/05/20 09:25:34;;;;;;;10.05;5.22;;;18.00;99.90;;;;;;5041633;28;20566;-71
2021/05/20 09:28:00;;;;;;;10.23;5.30;;;17.80;99.90;;;;;;5037636;28;20588;-72
2021/05/20 09:30:28;;;;;;;9.27;5.13;;;17.60;99.90;;;;;;5041820;28;20037;-72
2021/05/20 09:33:09;;;;;;;7.90;4.78;;;17.50;99.90;;;;;;5042752;28;20029;-71
2021/05/20 09:35:40;;;;;;;8.48;4.43;;;17.60;99.90;;;;;;5039535;28;20108;-70
2021/05/20 09:38:20;;;;;;;8.15;4.38;;;17.80;99.90;;;;;;5043426;28;20116;-72
2021/05/20 09:40:56;;;;;;;;;;;17.90;99.90;;;;;;5041923;28;20037;-70
2021/05/20 09:43:30;;;;;;;7.78;3.78;;;18.10;99.90;;;;;;5040072;28;19920;-70
2021/05/20 09:45:57;;;;;;;10.07;5.07;;;18.20;99.90;;;;;;5043221;28;20856;-71
2021/05/20 09:48:27;;;;;;;10.77;5.15;;;18.30;99.90;;;;;;5041266;28;20044;-71
2021/05/20 09:50:55;;;;;;;9.40;5.30;;;18.40;99.90;;;;;;5041172;28;20072;-71
2021/05/20 09:53:23;;;;;;;13.75;6.15;;;18.40;99.90;;;;;;5043219;28;20064;-72
2021/05/20 09:55:58;;;;;;;9.32;5.40;;;18.40;99.90;;;;;;5042871;28;20044;-70
2021/05/20 09:58:28;;;;;;;9.20;5.10;;;18.50;99.90;;;;;;5041081;28;20120;-71
2021/05/20 10:00:55;;;;;;;6.68;3.88;;;18.70;99.90;;;;;;5045947;28;20040;-70
2021/05/20 10:03:22;;;;;;;9.05;4.70;;;18.80;99.90;;;;;;5044658;28;20136;-71
2021/05/20 10:05:52;;;;;;;12.65;6.78;;;18.70;99.90;;;;;;5039021;28;20038;-71
2021/05/20 10:08:22;;;;;;;11.93;6.70;;;18.50;99.90;;;;;;5045370;28;20037;-71
2021/05/20 10:10:48;;;;;;;;;;;18.30;99.90;;;;;;5041481;28;20029;-71
2021/05/20 10:13:20;;;;;;;6.55;3.63;;;18.30;99.90;;;;;;5041940;28;20364;-71
2021/05/20 10:15:46;;;;;;;8.05;4.75;;;18.60;99.70;;;;;;5040711;28;20443;-71
2021/05/20 10:18:17;;;;;;;12.30;6.15;;;18.60;99.90;;;;;;5041730;28;20060;-70
2021/05/20 10:20:45;;;;;;;8.77;5.00;;;18.80;99.90;;;;;;5042905;28;20033;-71
2021/05/20 10:23:12;;;;;;;9.13;4.40;;;18.70;99.30;;;;;;5043043;28;20124;-71
2021/05/20 10:25:39;;;;;;;8.00;4.28;;;18.80;97.80;;;;;;5042333;28;20052;-71
2021/05/20 10:28:06;;;;;;;8.43;5.38;;;18.90;99.90;;;;;;5047590;28;20048;-71
2021/05/20 10:30:33;;;;;;;11.70;6.05;;;19.10;99.20;;;;;;5042983;28;20052;-71
2021/05/20 10:32:59;;;;;;;12.10;5.18;;;19.10;99.90;;;;;;5045945;28;20132;-71
2021/05/20 10:35:43;;;;;;;9.10;4.75;;;19.20;98.70;;;;;;5049618;28;20091;-70
2021/05/20 10:38:10;;;;;;;11.75;5.18;;;19.30;97.60;;;;;;5050500;28;20482;-70
2021/05/20 10:40:36;;;;;;;12.02;4.93;;;19.20;98.20;;;;;;5048032;28;20034;-71
2021/05/20 10:43:08;;;;;;;8.82;4.28;;;19.00;96.90;;;;;;5042970;28;20056;-71
2021/05/20 10:45:35;;;;;;;12.68;5.90;;;18.90;97.50;;;;;;5049878;28;20119;-71
2021/05/20 10:48:04;;;;;;;10.73;5.57;;;18.80;98.10;;;;;;5044967;28;20044;-71
2021/05/20 10:50:54;;;;;;;6.43;3.67;;;18.80;98.70;;;;;;5049209;28;20079;-71
2021/05/20 10:53:41;;;;;;;7.38;4.22;;;18.90;96.40;;;;;;5049405;28;20320;-71
2021/05/20 10:56:46;;;;;;;14.38;6.38;;;18.90;96.80;;;;;;5048550;28;20037;-71
2021/05/20 10:59:34;;;;;;;7.15;3.90;;;18.70;96.80;;;;;;5042043;28;20386;-71
2021/05/20 11:02:00;;;;;;;6.88;3.90;;;19.00;94.60;;;;;;5046986;28;20033;-69
2021/05/20 11:04:37;;;;;;;7.20;3.90;;;18.90;95.50;;;;;;5041882;28;20052;-71
2021/05/20 11:07:04;;;;;;;6.13;3.08;;;18.80;93.60;;;;;;5049588;28;20063;-71
2021/05/20 11:09:45;;;;;;;6.97;3.28;;;18.90;94.80;;;;;;5047227;28;20040;-71
2021/05/20 11:12:11;;;;;;;6.60;3.28;;;18.90;94.10;;;;;;5047559;28;20067;-72
2021/05/20 11:14:38;;;;;;;8.02;3.78;;;19.10;93.70;;;;;;5043063;28;20629;-70
2021/05/20 11:17:30;;;;;;;7.50;3.03;;;19.00;91.70;;;;;;5051118;28;20041;-70
2021/05/20 11:20:25;;;;;;;5.40;2.92;;;19.10;90.90;;;;;;5047505;28;20037;-71
2021/05/20 11:23:14;;;;;;;13.77;4.60;;;19.30;91.00;;;;;;5050315;28;20029;-72
2021/05/20 11:25:41;;;;;;;9.27;4.10;;;19.10;91.80;;;;;;5045110;28;20037;-71
2021/05/20 11:28:08;;;;;;;9.50;4.72;;;18.90;92.50;;;;;;5046588;28;20026;-70
2021/05/20 11:30:33;;;;;;;9.07;4.45;;;19.00;92.40;;;;;;5040916;28;20070;-70
2021/05/20 11:33:00;;;;;;;8.48;4.45;;;18.80;92.50;;;;;;5046990;28;20029;-71
2021/05/20 11:35:37;;;;;;;8.52;4.53;;;18.80;93.10;;;;;;5047340;28;20128;-70
2021/05/20 11:38:03;;;;;;;13.68;5.47;;;18.80;92.50;;;;;;5047508;28;20049;-69
2021/05/20 11:40:32;;;;;;;10.18;5.05;;;18.80;93.50;;;;;;5045501;28;20148;-71
2021/05/20 11:42:59;;;;;;;13.35;5.95;;;18.80;93.20;;;;;;5046934;28;20047;-70
2021/05/20 11:45:33;;;;;;;9.98;5.15;;;18.80;92.90;;;;;;5045491;28;20286;-70
2021/05/20 11:48:00;;;;;;;11.05;5.20;;;18.80;92.20;;;;;;5047903;28;20099;-71
2021/05/20 11:50:26;;;;;;;10.40;5.68;;;18.90;92.20;;;;;;5044088;28;20671;-70
2021/05/20 11:52:53;;;;;;;8.82;5.30;;;18.90;93.30;;;;;;5046156;28;20036;-70
2021/05/20 11:55:19;;;;;;;11.88;6.00;;;19.20;93.10;;;;;;5043423;28;20029;-70
2021/05/20 11:57:46;;;;;;;11.02;6.40;;;19.20;91.90;;;;;;5043179;28;20057;-71
2021/05/20 12:00:13;;;;;;;14.38;6.35;;;19.20;91.90;;;;;;5049809;28;20576;-70
2021/05/20 12:02:39;;;;;;;12.63;5.88;;;19.20;90.70;;;;;;5040121;28;20041;-69
2021/05/20 12:05:08;;;;;;;13.02;7.10;;;19.30;92.50;;;;;;5040083;28;20044;-70
2021/05/20 12:07:37;;;;;;;14.75;7.63;;;19.40;92.60;;;;;;5039462;28;20049;-69
2021/05/20 12:10:23;;;;;;;16.50;8.60;;;19.40;91.40;;;;;;5044529;28;20048;-70
2021/05/20 12:13:02;;;;;;;14.27;7.68;;;19.10;92.70;;;;;;5041912;28;20041;-70
2021/05/20 12:15:29;;;;;;;13.05;7.68;;;19.10;92.80;;;;;;5041166;28;20044;-69
2021/05/20 12:17:59;;;;;;;15.45;7.53;;;19.00;93.40;;;;;;5045364;28;20033;-70
2021/05/20 12:20:26;;;;;;;14.35;7.28;;;19.20;93.50;;;;;;5046815;28;20083;-70
2021/05/20 12:22:52;;;;;;;14.10;7.70;;;19.10;94.00;;;;;;5041387;28;20131;-69
2021/05/20 12:25:19;;;;;;;12.13;7.32;;;19.20;93.30;;;;;;5042711;28;20112;-70
2021/05/20 12:27:50;;;;;;;12.93;7.13;;;19.10;92.40;;;;;;5043539;28;20044;-70
2021/05/20 12:30:21;;;;;;;13.65;7.13;;;19.10;92.20;;;;;;5041984;28;20597;-69
2021/05/20 12:33:07;;;;;;;11.02;6.85;;;19.10;92.90;;;;;;5043017;28;20089;-70
2021/05/20 12:35:45;;;;;;;11.02;6.88;;;19.10;93.00;;;;;;5041618;28;20040;-70
2021/05/20 12:38:12;;;;;;;12.20;6.60;;;19.10;93.60;;;;;;5045794;28;20032;-70
2021/05/20 12:40:44;;;;;;;14.93;5.95;;;19.20;92.30;;;;;;5041277;28;20045;-70
2021/05/20 12:43:33;;;;;;;8.93;5.45;;;18.90;93.10;;;;;;5047856;28;20037;-70